Time;durP1;ratioP1;P1;durP2;ratioP2;P2;SDS_P1;SDS_P2;PMS_P1;PMS_P2;Temp;Humidity;BMP_temperature;BMP_pressure;BME280_temperature;BME280_humidity;BME280_pressure;Samples;Min_cycle;Max_cycle;Signal;HPM_P1;HPM_P2
2023/05/11 00:00:19;;;;;;;;;;;12.60;99.90;;;;;;5062071;28;19935;-84
2023/05/11 00:02:47;;;;;;;;;;;12.60;99.90;;;;;;5061478;28;19912;-84
2023/05/11 00:05:14;;;;;;;;;;;12.60;99.90;;;;;;5062251;28;20592;-83
2023/05/11 00:07:41;;;;;;;;;;;12.60;99.90;;;;;;5062958;28;20295;-83
2023/05/11 00:10:08;;;;;;;;;;;12.60;99.90;;;;;;5061893;28;19913;-83
2023/05/11 00:12:35;;;;;;;;;;;12.60;99.90;;;;;;5080559;28;20012;-84
2023/05/11 00:15:02;;;;;;;;;;;12.60;99.90;;;;;;5080631;28;19935;-82
2023/05/11 00:17:29;;;;;;;;;;;12.60;99.90;;;;;;5064609;28;19932;-82
2023/05/11 00:19:58;;;;;;;;;;;12.70;99.90;;;;;;5063876;28;19932;-82
2023/05/11 00:22:25;;;;;;;;;;;12.70;99.90;;;;;;5081579;28;19990;-83
2023/05/11 00:24:52;;;;;;;;;;;12.70;99.90;;;;;;5065359;28;19936;-86
2023/05/11 00:27:19;;;;;;;;;;;12.70;99.90;;;;;;5065201;28;19958;-85
2023/05/11 00:29:47;;;;;;;;;;;12.70;99.90;;;;;;5065522;28;19925;-86
2023/05/11 00:32:14;;;;;;;;;;;12.80;99.90;;;;;;5075308;28;19924;-84
2023/05/11 00:34:42;;;;;;;;;;;12.80;99.90;;;;;;5084589;28;20012;-85
2023/05/11 00:37:10;;;;;;;;;;;12.90;99.90;;;;;;5085309;28;19979;-82
2023/05/11 00:39:39;;;;;;;;;;;12.90;99.90;;;;;;5086677;28;19935;-82
2023/05/11 00:42:10;;;;;;;;;;;13.00;99.90;;;;;;5069041;28;19947;-84
2023/05/11 00:44:37;;;;;;;;;;;13.00;99.90;;;;;;5085732;28;19928;-83
2023/05/11 00:47:04;;;;;;;;;;;13.10;99.90;;;;;;5056167;22;20007;-78
2023/05/11 00:49:31;;;;;;;;;;;13.10;99.90;;;;;;5062185;28;19928;-77
2023/05/11 00:52:01;;;;;;;;;;;13.20;99.90;;;;;;5058077;28;19936;-77
2023/05/11 00:54:30;;;;;;;;;;;13.20;99.90;;;;;;5048934;28;19925;-78
2023/05/11 00:56:56;;;;;;;;;;;13.20;99.90;;;;;;5048834;28;19936;-79
2023/05/11 00:59:23;;;;;;;;;;;13.20;99.90;;;;;;5032138;28;19929;-78
2023/05/11 01:01:50;;;;;;;;;;;13.30;99.90;;;;;;5046304;28;19951;-76
2023/05/11 01:04:18;;;;;;;;;;;13.30;99.90;;;;;;5046902;28;19952;-79
2023/05/11 01:06:47;;;;;;;;;;;13.30;99.90;;;;;;5050936;28;19932;-79
2023/05/11 01:09:21;;;;;;;;;;;13.30;99.90;;;;;;5017692;28;19964;-77
2023/05/11 01:11:53;;;;;;;;;;;13.30;99.90;;;;;;5038927;28;19932;-78
2023/05/11 01:14:23;;;;;;;;;;;13.30;99.90;;;;;;5037631;28;19975;-77
2023/05/11 01:16:55;;;;;;;;;;;13.30;99.90;;;;;;5029684;28;20309;-77
2023/05/11 01:19:29;;;;;;;;;;;13.30;99.90;;;;;;5018465;28;20313;-77
2023/05/11 01:21:56;;;;;;;;;;;13.30;99.90;;;;;;5016989;28;20016;-77
2023/05/11 01:24:27;;;;;;;;;;;13.30;99.90;;;;;;5037472;28;19939;-79
2023/05/11 01:27:06;;;;;;;;;;;13.30;99.90;;;;;;5017185;28;20746;-77
2023/05/11 01:29:42;;;;;;;;;;;13.30;99.90;;;;;;5010800;28;20225;-79
2023/05/11 01:32:15;;;;;;;;;;;13.30;99.90;;;;;;5018133;28;20357;-79
2023/05/11 01:34:43;;;;;;;;;;;13.30;99.90;;;;;;5038929;28;20054;-78
2023/05/11 01:37:12;;;;;;;;;;;13.30;99.90;;;;;;5011195;28;19939;-77
2023/05/11 01:39:40;;;;;;;;;;;13.30;99.90;;;;;;5027658;28;20048;-76
2023/05/11 01:42:09;;;;;;;;;;;13.20;99.90;;;;;;5018543;28;19932;-76
2023/05/11 01:44:37;;;;;;;;;;;13.20;99.90;;;;;;5037903;28;19929;-77
2023/05/11 01:47:04;;;;;;;;;;;13.20;99.90;;;;;;5039260;28;20479;-76
2023/05/11 01:49:35;;;;;;;;;;;13.20;99.90;;;;;;5016019;28;20517;-76
2023/05/11 01:52:02;;;;;;;;;;;13.10;99.90;;;;;;5036743;28;20010;-76
2023/05/11 01:54:30;;;;;;;;;;;13.50;99.90;;;;;;5037571;28;19940;-76
2023/05/11 01:56:57;;;;;;;;;;;12.40;99.90;;;;;;5032211;28;19933;-77
2023/05/11 01:59:26;;;;;;;;;;;13.00;99.90;;;;;;5010747;28;19935;-76
2023/05/11 02:01:53;;;;;;;;;;;12.90;99.90;;;;;;5018579;28;20015;-76
2023/05/11 02:04:21;;;;;;;;;;;12.90;99.90;;;;;;5038334;28;20457;-77
2023/05/11 02:06:50;;;;;;;;;;;12.90;99.90;;;;;;5038479;28;19951;-77
2023/05/11 02:09:18;;;;;;;;;;;12.80;99.90;;;;;;5036449;28;19948;-78
2023/05/11 02:11:45;;;;;;;;;;;12.80;99.90;;;;;;5035547;28;19933;-77
2023/05/11 02:14:15;;;;;;;;;;;14.90;99.90;;;;;;5011625;28;20668;-78
2023/05/11 02:16:42;;;;;;;;;;;12.80;99.90;;;;;;5037205;28;19933;-78
2023/05/11 02:19:10;;;;;;;;;;;12.80;99.90;;;;;;5018471;28;19933;-76
2023/05/11 02:21:37;;;;;;;;;;;12.70;99.90;;;;;;5035198;28;20552;-78
2023/05/11 02:24:07;;;;;;;;;;;12.70;99.90;;;;;;5024480;28;19939;-77
2023/05/11 02:26:34;;;;;;;;;;;12.70;99.90;;;;;;5026465;28;19932;-77
2023/05/11 02:29:01;;;;;;;;;;;12.70;99.90;;;;;;5033121;28;19929;-78
2023/05/11 02:31:29;;;;;;;;;;;12.70;99.90;;;;;;5016657;28;19933;-77
2023/05/11 02:34:00;;;;;;;;;;;12.70;99.90;;;;;;5032244;28;19933;-78
2023/05/11 02:36:28;;;;;;;;;;;12.70;99.90;;;;;;5033246;28;21149;-76
2023/05/11 02:39:02;;;;;;;;;;;12.70;99.90;;;;;;5016201;28;20023;-78
2023/05/11 02:41:31;;;;;;;;;;;12.60;99.90;;;;;;5023266;28;20397;-78
2023/05/11 02:44:02;;;;;;;;;;;12.60;99.90;;;;;;5016048;28;19932;-78
2023/05/11 02:46:33;;;;;;;;;;;12.60;99.90;;;;;;5015470;28;19940;-78
2023/05/11 02:49:02;;;;;;;;;;;12.60;99.90;;;;;;5024542;28;19924;-77
2023/05/11 02:51:32;;;;;;;;;;;12.50;99.90;;;;;;5017465;28;19933;-76
2023/05/11 02:53:59;;;;;;;;;;;12.50;99.90;;;;;;5034751;28;19998;-78
2023/05/11 02:56:30;;;;;;;;;;;12.50;99.90;;;;;;5038287;28;19931;-78
2023/05/11 02:58:57;;;;;;;;;;;12.50;99.90;;;;;;5044120;28;19933;-79
2023/05/11 03:01:26;;;;;;;;;;;12.40;99.90;;;;;;5040697;28;19932;-81
2023/05/11 03:03:53;;;;;;;;;;;12.70;99.90;;;;;;5026528;28;20019;-78
2023/05/11 03:06:21;;;;;;;;;;;12.40;99.90;;;;;;5016820;28;19945;-79
2023/05/11 03:08:48;;;;;;;;;;;12.40;99.90;;;;;;5010941;28;19928;-77
2023/05/11 03:11:17;;;;;;;;;;;12.40;99.90;;;;;;5020536;28;20366;-77
2023/05/11 03:13:48;;;;;;;;;;;12.40;99.90;;;;;;5018228;28;19933;-78
2023/05/11 03:16:16;;;;;;;;;;;12.40;99.90;;;;;;5019155;28;20021;-78
2023/05/11 03:18:44;;;;;;;;;;;12.40;99.90;;;;;;5038270;28;20318;-79
2023/05/11 03:21:11;;;;;;;;;;;12.40;99.90;;;;;;5019302;28;19925;-77
2023/05/11 03:23:39;;;;;;;;;;;12.40;99.90;;;;;;5036301;28;19933;-80
2023/05/11 03:26:06;;;;;;;;;;;12.40;99.90;;;;;;5035275;28;20003;-79
2023/05/11 03:28:36;;;;;;;;;;;12.40;99.90;;;;;;5017215;28;19929;-77
2023/05/11 03:31:08;;;;;;;;;;;12.30;99.90;;;;;;5018387;28;19956;-77
2023/05/11 03:33:35;;;;;;;;;;;12.30;99.90;;;;;;5016483;28;19925;-78
2023/05/11 03:36:02;;;;;;;;;;;12.30;99.90;;;;;;5017725;28;19929;-77
2023/05/11 03:38:30;;;;;;;;;;;12.30;99.90;;;;;;5016943;28;19945;-78
2023/05/11 03:40:58;;;;;;;;;;;12.20;99.90;;;;;;5017972;28;20128;-77
2023/05/11 03:43:26;;;;;;;;;;;12.30;99.90;;;;;;5018144;28;19933;-77
2023/05/11 03:45:54;;;;;;;;;;;12.20;99.90;;;;;;5012032;28;19933;-79
2023/05/11 03:48:23;;;;;;;;;;;12.20;99.90;;;;;;5018675;28;19933;-77
2023/05/11 03:50:51;;;;;;;;;;;12.70;99.90;;;;;;5024382;28;19931;-76
2023/05/11 03:53:19;;;;;;;;;;;12.20;99.90;;;;;;5021703;28;20061;-76
2023/05/11 03:55:46;;;;;;;;;;;12.30;99.90;;;;;;5025219;28;19945;-77
2023/05/11 03:58:13;;;;;;;;;;;12.30;99.90;;;;;;5042071;28;19925;-76
2023/05/11 04:00:40;;;;;;;;;;;12.30;99.90;;;;;;5041040;28;19961;-76
2023/05/11 04:03:07;;;;;;;;;;;12.30;99.90;;;;;;5024068;28;19939;-76
2023/05/11 04:05:35;;;;;;;;;;;12.30;99.90;;;;;;5024969;28;20667;-76
2023/05/11 04:08:05;;;;;;;;;;;11.90;99.90;;;;;;5048662;28;20031;-77
2023/05/11 04:10:31;;;;;;;;;;;12.30;99.90;;;;;;5071014;28;20316;-75
2023/05/11 04:12:58;;;;;;;;;;;12.30;99.90;;;;;;5052747;28;20393;-78
2023/05/11 04:15:25;;;;;;;;;;;12.30;99.90;;;;;;5053451;28;20311;-77
2023/05/11 04:17:52;;;;;;;;;;;12.20;99.90;;;;;;5053106;28;19931;-78
2023/05/11 04:20:18;;;;;;;;;;;12.20;99.90;;;;;;5053002;28;19933;-77
2023/05/11 04:22:46;;;;;;;;;;;12.20;99.90;;;;;;5038495;28;20393;-76
2023/05/11 04:25:13;;;;;;;;;;;12.20;99.90;;;;;;5067833;28;19924;-77
2023/05/11 04:27:40;;;;;;;;;;;12.20;99.90;;;;;;5051757;28;20639;-77
2023/05/11 04:30:07;;;;;;;;;;;12.20;99.90;;;;;;5049225;28;19932;-77
2023/05/11 04:32:34;;;;;;;;;;;12.30;99.90;;;;;;5048929;28;20099;-76
2023/05/11 04:35:01;;;;;;;;;;;12.40;99.90;;;;;;5045806;28;19940;-77
2023/05/11 04:37:30;;;;;;;;;;;12.40;99.90;;;;;;5025969;28;20309;-78
2023/05/11 04:39:59;;;;;;;;;;;12.50;99.90;;;;;;5018820;28;20523;-77
2023/05/11 04:42:25;;;;;;;;;;;12.60;99.90;;;;;;5021459;28;20448;-77
2023/05/11 04:44:55;;;;;;;;;;;12.60;99.90;;;;;;5019720;28;19933;-79
2023/05/11 04:47:21;;;;;;;;;;;12.70;99.90;;;;;;5017925;28;20372;-77
2023/05/11 04:49:49;;;;;;;;;;;12.70;99.90;;;;;;5015366;28;19933;-78
2023/05/11 04:52:16;;;;;;;;;;;12.80;99.90;;;;;;5022928;28;19987;-76
2023/05/11 04:54:46;;;;;;;;;;;12.90;99.90;;;;;;5025904;28;20010;-79
2023/05/11 04:57:14;;;;;;;;;;;13.00;99.90;;;;;;5045176;28;19929;-76
2023/05/11 04:59:41;;;;;;;;;;;13.10;99.90;;;;;;5020966;28;20382;-78
2023/05/11 05:02:07;;;;;;;;;;;13.20;99.90;;;;;;5040956;28;19924;-77
2023/05/11 05:04:34;;;;;;;;;;;13.20;99.90;;;;;;5039211;28;19933;-76
2023/05/11 05:07:01;;;;;;;;;;;13.30;99.90;;;;;;5015847;28;20321;-78
2023/05/11 05:09:27;;;;;;;;;;;13.30;99.90;;;;;;5055711;28;20297;-76
2023/05/11 05:11:54;;;;;;;;;;;13.30;99.90;;;;;;5070166;28;19924;-77
2023/05/11 05:14:22;;;;;;;;;;;13.30;99.90;;;;;;5054894;28;19940;-76
2023/05/11 05:16:49;;;;;;;;;;;13.30;99.90;;;;;;5043455;28;19932;-76
2023/05/11 05:19:16;;;;;;;;;;;13.30;99.90;;;;;;5030656;28;20007;-77
2023/05/11 05:21:43;;;;;;;;;;;13.30;99.90;;;;;;5037990;28;19931;-77
2023/05/11 05:24:11;;;;;;;;;;;13.30;99.90;;;;;;5059284;28;19936;-78
2023/05/11 05:26:37;;;;;;;;;;;13.30;99.90;;;;;;5047811;28;19971;-77
2023/05/11 05:29:04;;;;;;;;;;;13.40;99.90;;;;;;5030316;28;20370;-76
2023/05/11 05:31:33;;;;;;;;;;;13.40;99.90;;;;;;5046136;28;19972;-77
2023/05/11 05:34:00;;;;;;;;;;;13.50;99.90;;;;;;5031483;28;19951;-76
2023/05/11 05:36:27;;;;;;;;;;;13.50;99.90;;;;;;5030295;28;19929;-78
2023/05/11 05:38:54;;;;;;;;;;;13.50;99.90;;;;;;5048658;28;19942;-77
2023/05/11 05:41:21;;;;;;;;;;;13.40;99.90;;;;;;5031014;28;19929;-76
2023/05/11 05:43:49;;;;;;;;;;;13.40;99.90;;;;;;5030303;28;20381;-77
2023/05/11 05:46:17;;;;;;;;;;;13.50;99.90;;;;;;5031012;28;20043;-76
2023/05/11 05:48:45;;;;;;;;;;;13.50;99.90;;;;;;5030314;28;19935;-79
2023/05/11 05:54:02;;;;;;;;;;;13.50;99.90;;;;;;5258817;22;20717;-76
2023/05/11 05:56:33;;;;;;;;;;;13.50;99.90;;;;;;5054082;28;19928;-77
2023/05/11 05:59:01;;;;;;;;;;;13.60;99.90;;;;;;5069765;28;20385;-77
2023/05/11 06:01:29;;;;;;;;;;;13.60;99.90;;;;;;5051169;28;19928;-77
2023/05/11 06:03:57;;;;;;;;;;;13.60;99.90;;;;;;5068665;28;20018;-78
2023/05/11 06:06:25;;;;;;;;;;;13.60;99.90;;;;;;5060663;28;19928;-75
2023/05/11 06:08:51;;;;;;;;;;;13.60;99.90;;;;;;5058021;28;19924;-75
2023/05/11 06:11:18;;;;;;;;;;;13.60;99.90;;;;;;5067856;28;20531;-75
2023/05/11 06:13:45;;;;;;;;;;;13.90;99.90;;;;;;5067878;28;20004;-75
2023/05/11 06:16:11;;;;;;;;;;;13.70;99.90;;;;;;5068511;28;19925;-75
2023/05/11 06:18:38;;;;;;;;;;;13.70;99.90;;;;;;5067929;28;19935;-75
2023/05/11 06:21:08;;;;;;;;;;;13.80;99.90;;;;;;5058957;28;19932;-75
2023/05/11 06:23:35;;;;;;;;;;;14.00;99.90;;;;;;5058570;28;19971;-75
2023/05/11 06:26:02;;;;;;;;;;;14.10;99.90;;;;;;5079708;28;19924;-74
2023/05/11 06:28:31;;;;;;;;;;;14.20;99.90;;;;;;5049171;28;19928;-75
2023/05/11 06:31:02;;;;;;;;;;;14.40;99.90;;;;;;5046126;28;19924;-74
2023/05/11 06:33:31;;;;;;;;;;;14.50;99.90;;;;;;5050567;28;19968;-75
2023/05/11 06:35:59;;;;;;;;;;;14.60;99.90;;;;;;5049618;28;19970;-74
2023/05/11 06:38:30;;;;;;;;;;;14.70;99.90;;;;;;5056039;28;20008;-74
2023/05/11 06:40:56;;;;;;;;;;;14.90;99.90;;;;;;5058396;28;19969;-74
2023/05/11 06:43:23;;;;;;;;;;;14.90;99.90;;;;;;5062495;28;19928;-74
2023/05/11 06:45:52;;;;;;;;;;;15.20;99.90;;;;;;5063153;28;19929;-76
2023/05/11 06:48:22;;;;;;;;;;;15.50;99.90;;;;;;5048666;28;19924;-75
2023/05/11 06:50:48;;;;;;;;;;;16.10;99.90;;;;;;5075201;28;19924;-75
2023/05/11 06:53:16;;;;;;;;;;;16.20;99.90;;;;;;5078580;28;19936;-73
2023/05/11 06:55:44;;;;;;;;;;;16.50;99.90;;;;;;5074214;28;19932;-75
2023/05/11 06:58:11;;;;;;;;;;;16.80;99.90;;;;;;5054923;28;20343;-74
2023/05/11 07:00:38;;;;;;;;;;;17.10;99.90;;;;;;5059014;28;20266;-74
2023/05/11 07:03:05;;;;;;;;;;;17.20;99.90;;;;;;5088844;28;19978;-74
2023/05/11 07:05:31;;;;;;;;;;;17.20;99.90;;;;;;5080009;28;19928;-74
2023/05/11 07:07:58;;;;;;;;;;;17.30;99.90;;;;;;5068756;28;20002;-74
2023/05/11 07:10:25;;;;;;;;;;;17.40;99.90;;;;;;5068458;28;19985;-74
2023/05/11 07:12:53;;;;;;;;;;;17.70;99.90;;;;;;5069192;28;20019;-74
2023/05/11 07:15:20;;;;;;;;;;;18.00;99.90;;;;;;5065501;28;19933;-74
2023/05/11 07:17:47;;;;;;;;;;;18.40;99.90;;;;;;5054492;28;20629;-74
2023/05/11 07:20:13;;;;;;;;;;;18.90;99.90;;;;;;5051662;28;20429;-74
2023/05/11 07:22:40;;;;;;;;;;;19.10;99.90;;;;;;5048964;28;19932;-74
2023/05/11 07:25:08;;;;;;;;;;;19.00;99.90;;;;;;5052472;28;20144;-74
2023/05/11 07:27:35;;;;;;;;;;;19.10;99.90;;;;;;5058565;28;19932;-74
2023/05/11 07:30:03;;;;;;;;;;;19.20;99.90;;;;;;5053165;28;20499;-74
2023/05/11 07:32:30;;;;;;;;;;;19.60;99.90;;;;;;5592680;22;19932;-75
2023/05/11 07:34:57;;;;;;;;;;;19.80;99.90;;;;;;5073519;28;19935;-75
2023/05/11 07:37:23;;;;;;;;;;;20.80;99.90;;;;;;5075024;28;20099;-74
2023/05/11 07:39:50;;;;;;;;;;;22.30;99.90;;;;;;5071831;28;19940;-75
2023/05/11 07:42:17;;;;;;;;;;;24.50;99.90;;;;;;5074325;28;19939;-75
2023/05/11 07:44:43;;;;;;;;;;;25.50;99.90;;;;;;5080933;28;19993;-75
2023/05/11 07:47:12;;;;;;;;;;;26.70;99.90;;;;;;5081940;28;20015;-80
2023/05/11 07:49:40;;;;;;;;;;;28.00;99.90;;;;;;5096409;28;20001;-78
2023/05/11 07:52:07;;;;;;;;;;;29.00;99.90;;;;;;5068935;28;20300;-77
2023/05/11 07:54:34;;;;;;;;;;;29.20;99.90;;;;;;5094488;28;19928;-77
2023/05/11 07:57:02;;;;;;;;;;;29.80;99.90;;;;;;5086965;28;19985;-78
2023/05/11 07:59:29;;;;;;;;;;;30.10;99.90;;;;;;5082241;28;20002;-79
2023/05/11 08:01:56;;;;;;;;;;;28.40;99.90;;;;;;5587951;22;19912;-79
2023/05/11 08:04:26;;;;;;;;;;;28.40;99.90;;;;;;5080757;28;19928;-77
2023/05/11 08:06:53;;;;;;;;;;;28.00;99.90;;;;;;5078709;28;19932;-78
2023/05/11 08:09:20;;;;;;;;;;;27.80;99.90;;;;;;5085225;28;20009;-78
2023/05/11 08:14:15;;;;;;;;;;;28.70;99.90;;;;;;5017852;28;20126;-77
2023/05/11 08:16:42;;;;;;;;;;;29.30;99.90;;;;;;5022780;28;20134;-77
2023/05/11 08:19:10;;;;;;;;;;;30.10;99.90;;;;;;5025682;28;19995;-76
2023/05/11 08:21:38;;;;;;;;;;;30.60;99.90;;;;;;5017723;28;19926;-77
2023/05/11 08:24:05;;;;;;;;;;;30.60;99.90;;;;;;5016224;28;19929;-77
2023/05/11 08:26:33;;;;;;;;;;;30.50;99.90;;;;;;5014476;28;19936;-75
2023/05/11 08:29:00;;;;;;;;;;;30.70;99.90;;;;;;5006516;28;19956;-75
2023/05/11 08:31:26;;;;;;;;;;;30.00;99.90;;;;;;5021783;28;20410;-75
2023/05/11 08:33:53;;;;;;;;;;;29.60;99.90;;;;;;5025205;28;19984;-74
2023/05/11 08:36:20;;;;;;;;;;;28.30;99.90;;;;;;5024213;28;19933;-74
2023/05/11 08:38:48;;;;;;;;;;;26.90;99.90;;;;;;5008929;28;20029;-75
2023/05/11 08:41:15;;;;;;;;;;;24.50;99.90;;;;;;5010864;28;19930;-76
2023/05/11 08:43:43;;;;;;;;;;;24.30;99.90;;;;;;5013748;28;20263;-76
2023/05/11 08:46:11;;;;;;;;;;;23.20;99.90;;;;;;5020138;28;19929;-75
2023/05/11 08:48:37;;;;;;;;;;;22.20;99.90;;;;;;5020522;28;19926;-76
2023/05/11 08:51:05;;;;;;;;;;;20.80;99.90;;;;;;5032773;28;20182;-76
2023/05/11 08:53:32;;;;;;;;;;;20.60;99.90;;;;;;5036595;28;19924;-76
2023/05/11 08:56:00;;;;;;;;;;;20.00;99.90;;;;;;5054350;28;19936;-76
2023/05/11 08:58:27;;;;;;;;;;;19.50;99.90;;;;;;5048065;28;19937;-76
2023/05/11 09:00:54;;;;;;;;;;;18.80;99.90;;;;;;5032310;28;20413;-76
2023/05/11 09:03:21;;;;;;;;;;;19.30;99.90;;;;;;5021347;28;20346;-76
2023/05/11 09:05:49;;;;;;;;;;;18.50;99.90;;;;;;5020953;28;19933;-77
2023/05/11 09:08:18;;;;;;;;;;;18.30;99.90;;;;;;5022195;28;19925;-77
2023/05/11 09:10:44;;;;;;;;;;;18.20;99.90;;;;;;5032740;28;19929;-76
2023/05/11 09:13:13;;;;;;;;;;;18.30;99.90;;;;;;5044630;28;19929;-76
2023/05/11 09:15:39;;;;;;;;;;;18.50;99.90;;;;;;5050918;28;19928;-77
2023/05/11 09:18:06;;;;;;;;;;;18.60;99.90;;;;;;5050660;28;20024;-77
2023/05/11 09:20:33;;;;;;;;;;;18.70;99.90;;;;;;5052417;28;20202;-77
2023/05/11 09:23:01;;;;;;;;;;;18.80;99.90;;;;;;5052376;28;19929;-77
2023/05/11 09:25:29;;;;;;;;;;;18.90;99.90;;;;;;5054302;28;19928;-76
2023/05/11 09:27:57;;;;;;;;;;;18.70;99.90;;;;;;5027145;28;19940;-76
2023/05/11 09:30:25;;;;;;;;;;;19.00;99.90;;;;;;5040127;28;19936;-77
2023/05/11 09:32:53;;;;;;;;;;;19.10;99.90;;;;;;5045079;28;19967;-76
2023/05/11 09:35:23;;;;;;;;;;;19.00;99.90;;;;;;5051033;28;20349;-77
2023/05/11 09:37:57;;;;;;;;;;;19.00;99.90;;;;;;5049234;28;19947;-77
2023/05/11 09:40:24;;;;;;;;;;;19.10;99.90;;;;;;5048877;28;20739;-77
2023/05/11 09:42:51;;;;;;;;;;;18.90;99.90;;;;;;5049172;28;19936;-79
2023/05/11 09:45:32;;;;;;;;;;;18.90;99.90;;;;;;5050399;28;20318;-79
2023/05/11 09:48:01;;;;;;;;;;;18.90;99.90;;;;;;5044945;28;19929;-76
2023/05/11 09:50:31;;;;;;;;;;;18.80;99.90;;;;;;5057684;28;19924;-76
2023/05/11 09:52:58;;;;;;;;;;;18.80;99.90;;;;;;5070004;28;19960;-79
2023/05/11 09:55:25;;;;;;;;;;;18.90;99.90;;;;;;5052091;28;20012;-82
2023/05/11 09:57:53;;;;;;;;;;;18.90;99.90;;;;;;5041575;28;20321;-76
2023/05/11 10:00:20;;;;;;;;;;;19.10;99.90;;;;;;5041591;28;19928;-77
2023/05/11 10:02:58;;;;;;;;;;;19.20;99.90;;;;;;5048902;28;19947;-77
2023/05/11 10:05:30;;;;;;;;;;;19.30;99.90;;;;;;5044842;28;20300;-77
2023/05/11 10:07:57;;;;;;;;;;;19.50;99.90;;;;;;5029153;28;20023;-78
2023/05/11 10:10:25;;;;;;;;;;;19.80;99.90;;;;;;5029106;28;20992;-77
2023/05/11 10:12:52;;;;;;;;;;;20.40;99.90;;;;;;5032566;28;19929;-78
2023/05/11 10:15:20;;;;;;;;;;;20.80;99.90;;;;;;5033037;28;19925;-77
2023/05/11 10:17:47;;;;;;;;;;;21.20;99.90;;;;;;5033078;28;20110;-77
2023/05/11 10:20:14;;;;;;;;;;;21.30;99.90;;;;;;5030911;28;20374;-78
2023/05/11 10:22:42;;;;;;;;;;;21.50;99.90;;;;;;5028534;28;19935;-78
2023/05/11 10:25:10;;;;;;;;;;;21.60;99.90;;;;;;5029599;28;19999;-77
2023/05/11 10:27:37;;;;;;;;;;;21.70;99.90;;;;;;5029093;28;20358;-77
2023/05/11 10:30:05;;;;;;;;;;;21.90;99.90;;;;;;5036126;28;19929;-80
2023/05/11 10:32:36;;;;;;;;;;;22.20;99.90;;;;;;5039513;28;19968;-77
2023/05/11 10:35:03;;;;;;;;;;;22.40;99.90;;;;;;5044370;28;19928;-77
2023/05/11 10:37:29;;;;;;;;;;;22.50;99.90;;;;;;5027983;28;19991;-77
2023/05/11 10:39:57;;;;;;;;;;;22.70;99.90;;;;;;5027680;28;19933;-78
2023/05/11 10:42:32;;;;;;;;;;;22.80;99.90;;;;;;5028013;28;19933;-76
2023/05/11 10:45:22;;;;;;;;;;;22.90;99.90;;;;;;5038670;28;19996;-76
2023/05/11 10:48:06;;;;;;;;;;;23.00;99.90;;;;;;5041268;28;19931;-77
2023/05/11 10:50:39;;;;;;;;;;;23.40;99.90;;;;;;5053852;28;19925;-76
2023/05/11 10:53:15;;;;;;;;;;;23.60;99.90;;;;;;5047700;28;19935;-76
2023/05/11 10:55:51;;;;;;;;;;;23.80;99.90;;;;;;5044183;28;19933;-76
2023/05/11 10:58:21;;;;;;;;;;;23.90;99.90;;;;;;5042270;28;19929;-76
2023/05/11 11:00:48;;;;;;;;;;;;;;;;;;5034498;28;19966;-78
2023/05/11 11:03:14;;;;;;;;;;;24.30;99.90;;;;;;5037296;28;19928;-77
2023/05/11 11:05:42;;;;;;;;;;;24.40;99.90;;;;;;5046977;28;19964;-79
2023/05/11 11:08:09;;;;;;;;;;;24.60;99.90;;;;;;5028432;28;20424;-77
2023/05/11 11:10:37;;;;;;;;;;;24.70;99.90;;;;;;5046841;28;19928;-77
2023/05/11 11:13:06;;;;;;;;;;;24.80;99.90;;;;;;4985167;28;1758401;-78
2023/05/11 11:15:52;;;;;;;;;;;24.80;99.90;;;;;;5029973;28;19936;-78
2023/05/11 11:18:19;;;;;;;;;;;24.80;99.90;;;;;;5047481;28;19929;-77
2023/05/11 11:20:47;;;;;;;;;;;24.70;99.90;;;;;;5047222;28;20007;-80
2023/05/11 11:23:29;;;;;;;;;;;24.60;99.90;;;;;;5047865;28;20008;-79
2023/05/11 11:25:56;;;;;;;;;;;24.40;99.90;;;;;;5046950;28;20028;-77
2023/05/11 11:28:24;;;;;;;;;;;24.30;99.90;;;;;;5047431;28;20339;-77
2023/05/11 11:31:06;;;;;;;;;;;24.40;99.90;;;;;;5064420;28;20130;-80
2023/05/11 11:33:33;;;;;;;;;;;24.30;99.90;;;;;;5064055;28;19912;-81
2023/05/11 11:36:00;;;;;;;;;;;24.60;99.90;;;;;;5073164;28;19994;-82
2023/05/11 11:38:27;;;;;;;;;;;25.10;99.90;;;;;;5072121;28;19928;-81
2023/05/11 11:40:53;;;;;;;;;;;24.60;99.90;;;;;;5071888;28;19980;-81
2023/05/11 11:43:21;;;;;;;;;;;24.70;99.90;;;;;;5063483;28;19917;-81
2023/05/11 11:45:53;;;;;;;;;;;24.80;99.90;;;;;;5041147;28;19936;-78
2023/05/11 11:48:28;;;;;;;;;;;25.00;99.90;;;;;;5035500;28;19990;-78
2023/05/11 11:51:03;;;;;;;;;;;25.20;99.90;;;;;;5046083;28;19935;-77
2023/05/11 11:53:48;;;;;;;;;;;25.20;99.90;;;;;;5047430;28;20407;-78
2023/05/11 11:56:29;;;;;;;;;;;25.50;99.90;;;;;;5032495;28;20000;-78
2023/05/11 11:58:56;;;;;;;;;;;25.70;99.90;;;;;;5030866;28;19952;-79
2023/05/11 12:01:26;;;;;;;;;;;25.90;99.90;;;;;;5039434;28;19936;-78
2023/05/11 12:03:58;;;;;;;;;;;26.00;99.90;;;;;;5043629;28;19925;-78
2023/05/11 12:06:25;;;;;;;;;;;26.00;99.90;;;;;;5049799;28;19928;-80
2023/05/11 12:08:52;;;;;;;;;;;25.70;99.90;;;;;;5050036;28;20011;-78
2023/05/11 12:11:18;;;;;;;;;;;25.60;99.90;;;;;;5051383;28;20064;-72
2023/05/11 12:13:45;;;;;;;;;;;25.40;99.90;;;;;;5042519;28;19935;-80
2023/05/11 12:16:12;;;;;;;;;;;25.00;99.90;;;;;;5049743;28;20397;-78
2023/05/11 12:18:40;;;;;;;;;;;24.40;99.90;;;;;;5044475;28;20217;-78
2023/05/11 12:21:13;;;;;;;;;;;23.60;99.90;;;;;;5051578;28;20306;-78
2023/05/11 12:23:39;;;;;;;;;;;23.60;99.90;;;;;;5051647;28;19980;-77
2023/05/11 12:26:07;;;;;;;;;;;22.90;99.90;;;;;;5043859;28;19925;-79
2023/05/11 12:28:33;;;;;;;;;;;22.00;99.90;;;;;;5031171;28;19951;-77
2023/05/11 12:31:00;;;;;;;;;;;21.80;99.90;;;;;;5036340;28;19929;-77
2023/05/11 12:33:27;;;;;;;;;;;22.50;99.90;;;;;;5043365;28;19931;-77
2023/05/11 12:35:56;;;;;;;;;;;21.70;99.90;;;;;;5043549;28;19929;-76
2023/05/11 12:38:23;;;;;;;;;;;21.60;99.90;;;;;;5045489;28;19932;-77
2023/05/11 12:40:50;;;;;;;;;;;21.50;99.90;;;;;;5040733;28;19948;-77
2023/05/11 12:43:17;;;;;;;;;;;21.40;99.90;;;;;;5039835;28;19937;-77
2023/05/11 12:45:44;;;;;;;;;;;21.30;99.90;;;;;;5048081;28;19961;-78
2023/05/11 12:48:12;;;;;;;;;;;21.10;99.90;;;;;;5045544;28;19933;-76
2023/05/11 12:50:39;;;;;;;;;;;20.80;99.90;;;;;;5061625;28;19987;-77
2023/05/11 12:53:14;;;;;;;;;;;20.60;99.90;;;;;;5064948;28;19932;-77
2023/05/11 12:55:42;;;;;;;;;;;20.40;99.90;;;;;;5058733;28;19936;-76
2023/05/11 12:58:12;;;;;;;;;;;20.30;99.90;;;;;;5050375;28;19932;-77
2023/05/11 13:00:50;;;;;;;;;;;20.20;99.90;;;;;;5039328;28;19983;-77
2023/05/11 13:03:20;;;;;;;;;;;20.20;99.90;;;;;;5038580;28;19925;-77
2023/05/11 13:05:47;;;;;;;;;;;20.20;99.90;;;;;;5039624;28;19940;-79
2023/05/11 13:08:16;;;;;;;;;;;20.30;99.90;;;;;;5044001;28;19924;-78
2023/05/11 13:10:43;;;;;;;;;;;20.40;99.90;;;;;;5033156;28;19929;-78
2023/05/11 13:13:10;;;;;;;;;;;20.60;99.90;;;;;;5031208;28;19929;-78
2023/05/11 13:15:49;;;;;;;;;;;20.80;99.90;;;;;;5031275;28;19983;-79
2023/05/11 13:18:16;;;;;;;;;;;21.00;99.90;;;;;;5035900;28;19932;-78
2023/05/11 13:20:43;;;;;;;;;;;21.30;99.90;;;;;;5029428;28;19933;-79
2023/05/11 13:23:11;;;;;;;;;;;21.60;99.90;;;;;;5042540;28;20416;-81
2023/05/11 13:25:53;;;;;;;;;;;21.90;99.90;;;;;;5047430;28;19929;-78
2023/05/11 13:28:20;;;;;;;;;;;22.20;99.90;;;;;;5046876;28;19940;-80
2023/05/11 13:30:47;;;;;;;;;;;22.60;99.90;;;;;;5038032;28;20006;-78
2023/05/11 13:33:14;;;;;;;;;;;22.90;99.90;;;;;;5038843;28;19925;-77
2023/05/11 13:35:41;;;;;;;;;;;23.10;99.90;;;;;;5061437;28;19939;-77
2023/05/11 13:38:08;;;;;;;;;;;23.20;99.90;;;;;;5069137;28;19924;-78
2023/05/11 13:40:35;;;;;;;;;;;23.30;99.90;;;;;;5049390;28;19932;-79
2023/05/11 13:43:03;;;;;;;;;;;23.30;99.90;;;;;;5012908;28;19967;-78
2023/05/11 13:45:30;;;;;;;;;;;23.30;99.90;;;;;;5029076;28;19928;-78
2023/05/11 13:47:57;;;;;;;;;;;23.40;99.90;;;;;;5033307;28;19928;-77
2023/05/11 13:50:24;;;;;;;;;;;23.60;99.90;;;;;;5040785;28;19936;-77
2023/05/11 13:52:52;;;;;;;;;;;23.90;99.90;;;;;;5092022;22;19952;-84
2023/05/11 13:55:21;;;;;;;;;;;24.00;99.90;;;;;;5106784;28;19959;-85
2023/05/11 13:57:52;;;;;;;;;;;24.60;99.90;;;;;;5109370;28;19946;-84
2023/05/11 14:00:21;;;;;;;;;;;24.10;99.90;;;;;;5107432;28;20530;-84
2023/05/11 14:02:50;;;;;;;;;;;24.00;99.90;;;;;;5108214;28;19928;-83
2023/05/11 14:05:17;;;;;;;;;;;23.50;99.90;;;;;;5108374;28;19935;-84
2023/05/11 14:07:45;;;;;;;;;;;23.60;99.90;;;;;;5107992;28;19938;-84
2023/05/11 14:10:14;;;;;;;;;;;23.30;99.90;;;;;;5097197;28;19928;-84
2023/05/11 14:12:42;;;;;;;;;;;23.00;99.90;;;;;;5090648;28;19924;-84
2023/05/11 14:15:10;;;;;;;;;;;22.40;99.90;;;;;;5088514;28;19924;-85
2023/05/11 14:17:41;;;;;;;;;;;22.40;99.90;;;;;;5106673;28;20003;-85
2023/05/11 14:20:09;;;;;;;;;;;22.20;99.90;;;;;;5110324;28;19928;-85
2023/05/11 14:22:41;;;;;;;;;;;22.20;99.90;;;;;;5091660;28;19935;-85
2023/05/11 14:25:09;;;;;;;;;;;22.00;99.90;;;;;;5105951;28;19924;-85
2023/05/11 14:27:36;;;;;;;;;;;22.00;99.90;;;;;;5101760;28;20388;-82